Time;durP1;ratioP1;P1;durP2;ratioP2;P2;SDS_P1;SDS_P2;PMS_P1;PMS_P2;Temp;Humidity;BMP_temperature;BMP_pressure;BME280_temperature;BME280_humidity;BME280_pressure;Samples;Min_cycle;Max_cycle;Signal;HPM_P1;HPM_P2
2020/12/20 00:01:46;;;;;;;49.25;31.70;;;11.90;99.90;;;;;;4766665;30;20560;-75
2020/12/20 00:04:12;;;;;;;58.75;34.72;;;11.90;99.90;;;;;;4781708;30;20040;-82
2020/12/20 00:06:40;;;;;;;83.47;47.65;;;11.80;99.90;;;;;;4782806;30;20050;-76
2020/12/20 00:09:16;;;;;;;82.88;45.28;;;11.80;99.90;;;;;;4783209;29;21254;-76
2020/12/20 00:11:45;;;;;;;73.78;39.65;;;11.80;99.90;;;;;;4776851;30;20036;-76
2020/12/20 00:14:27;;;;;;;57.67;33.63;;;11.80;99.90;;;;;;4781973;29;20036;-76
2020/12/20 00:17:12;;;;;;;57.80;33.92;;;11.80;99.90;;;;;;4782963;30;20038;-75
2020/12/20 00:19:38;;;;;;;54.55;31.08;;;11.80;99.90;;;;;;4781533;30;20089;-75
2020/12/20 00:22:12;;;;;;;49.67;30.60;;;11.80;99.90;;;;;;4780057;30;20058;-76
2020/12/20 00:24:41;;;;;;;63.50;35.20;;;11.80;99.90;;;;;;4774286;30;20059;-75
2020/12/20 00:27:10;;;;;;;63.28;35.88;;;11.80;99.90;;;;;;4782702;30;20512;-76
2020/12/20 00:29:37;;;;;;;64.85;38.40;;;11.80;99.90;;;;;;4782549;30;20518;-75
2020/12/20 00:32:06;;;;;;;75.18;40.10;;;11.80;99.90;;;;;;4777708;30;20406;-76
2020/12/20 00:34:32;;;;;;;68.40;38.05;;;11.80;99.90;;;;;;4782066;29;20043;-75
2020/12/20 00:36:59;;;;;;;63.33;36.13;;;11.90;99.90;;;;;;4782521;30;20169;-81
2020/12/20 00:39:26;;;;;;;63.38;36.83;;;11.80;99.90;;;;;;4783274;29;20507;-75
2020/12/20 00:41:57;;;;;;;60.97;34.08;;;11.90;99.90;;;;;;4783060;30;20070;-75
2020/12/20 00:44:24;;;;;;;47.95;26.92;;;11.90;99.90;;;;;;4767935;30;20124;-76
2020/12/20 00:46:52;;;;;;;49.28;27.73;;;11.90;99.90;;;;;;4792805;29;20031;-76
2020/12/20 00:49:18;;;;;;;48.47;24.45;;;11.80;99.90;;;;;;4785684;30;20038;-76
2020/12/20 00:51:44;;;;;;;36.70;19.33;;;11.80;99.90;;;;;;4785411;29;20023;-75
2020/12/20 00:54:10;;;;;;;21.88;14.30;;;11.80;99.90;;;;;;4781300;29;20043;-75
2020/12/20 00:56:37;;;;;;;20.95;12.13;;;11.70;99.90;;;;;;4769457;30;20500;-75
2020/12/20 00:59:03;;;;;;;20.98;12.20;;;11.70;99.90;;;;;;4786165;29;20034;-76
2020/12/20 01:01:32;;;;;;;16.98;10.93;;;11.70;99.90;;;;;;4785470;29;20023;-74
2020/12/20 01:03:58;;;;;;;14.05;9.23;;;11.70;99.90;;;;;;4776700;30;20054;-76
2020/12/20 01:06:25;;;;;;;16.38;9.43;;;11.70;99.90;;;;;;4784159;29;20027;-76
2020/12/20 01:09:06;;;;;;;18.83;10.43;;;11.70;99.90;;;;;;4769311;30;20057;-75
2020/12/20 08:30:26;;;;;;;23.27;14.43;;;13.20;99.90;;;;;;4465110;24;20525;-74
2020/12/20 08:32:52;;;;;;;24.30;14.98;;;13.20;99.90;;;;;;4780330;30;20090;-75
2020/12/20 08:35:19;;;;;;;24.13;13.98;;;13.30;99.90;;;;;;4779425;29;20508;-74
2020/12/20 08:37:50;;;;;;;23.88;13.55;;;13.40;99.90;;;;;;4766498;30;20118;-74
2020/12/20 08:40:17;;;;;;;26.88;14.55;;;13.50;99.90;;;;;;4783063;30;20031;-75
2020/12/20 08:42:46;;;;;;;23.65;14.93;;;13.70;99.90;;;;;;4782897;29;20100;-75
2020/12/20 08:45:20;;;;;;;23.23;14.13;;;13.80;99.90;;;;;;4781442;29;20490;-75
2020/12/20 08:47:49;;;;;;;29.65;14.10;;;13.90;99.90;;;;;;4782376;29;20035;-75
2020/12/20 08:50:23;;;;;;;22.67;13.63;;;14.00;99.90;;;;;;4782101;29;20120;-75
2020/12/20 08:53:07;;;;;;;22.10;12.82;;;14.00;99.90;;;;;;4781141;29;20100;-75
2020/12/20 08:55:33;;;;;;;23.02;13.48;;;14.00;99.90;;;;;;4782763;30;20037;-75
2020/12/20 08:58:07;;;;;;;22.38;12.90;;;14.00;99.90;;;;;;4782529;29;20035;-75
2020/12/20 09:00:35;;;;;;;23.08;13.75;;;14.00;99.90;;;;;;4783960;29;20406;-75
2020/12/20 09:03:06;;;;;;;26.58;13.95;;;14.00;99.90;;;;;;4784015;30;20051;-75
2020/12/20 09:05:37;;;;;;;29.58;14.68;;;13.90;99.90;;;;;;4784920;30;20095;-75
2020/12/20 09:08:05;;;;;;;23.75;13.27;;;13.90;99.90;;;;;;4768833;30;20038;-74
2020/12/20 09:10:36;;;;;;;21.58;13.75;;;13.90;99.90;;;;;;4769746;30;20078;-75
2020/12/20 09:13:05;;;;;;;23.83;13.23;;;14.00;99.90;;;;;;4786228;30;20442;-75
2020/12/20 09:15:36;;;;;;;23.92;13.80;;;14.00;99.90;;;;;;4785934;29;20400;-75
2020/12/20 09:18:25;;;;;;;22.05;12.80;;;14.00;99.90;;;;;;4784223;29;20092;-75
2020/12/20 09:20:51;;;;;;;21.40;13.35;;;14.10;99.90;;;;;;4785120;29;20043;-76
2020/12/20 09:23:23;;;;;;;22.08;12.82;;;14.20;99.90;;;;;;4785618;30;20043;-75
2020/12/20 09:25:50;;;;;;;23.02;13.43;;;14.50;99.90;;;;;;4784974;29;20054;-75
2020/12/20 09:28:26;;;;;;;21.38;12.55;;;14.60;99.90;;;;;;4785112;29;20080;-76
2020/12/20 09:30:53;;;;;;;17.40;12.05;;;14.80;99.90;;;;;;4784701;29;20039;-75
2020/12/20 09:33:29;;;;;;;20.27;12.75;;;14.90;99.90;;;;;;4769215;30;20513;-75
2020/12/20 09:36:06;;;;;;;21.27;11.98;;;15.10;99.90;;;;;;4785674;30;20080;-75
2020/12/20 09:38:41;;;;;;;20.88;11.73;;;15.20;99.90;;;;;;4785387;30;20482;-75
2020/12/20 09:41:10;;;;;;;22.55;12.70;;;15.20;99.90;;;;;;4785340;29;20108;-75
2020/12/20 09:43:36;;;;;;;21.73;11.68;;;15.30;99.90;;;;;;4781660;29;20761;-76
2020/12/20 09:46:03;;;;;;;17.85;10.95;;;15.20;99.90;;;;;;4784502;30;20035;-75
2020/12/20 09:48:30;;;;;;;15.60;9.23;;;15.30;99.90;;;;;;4785462;29;20027;-75
2020/12/20 09:50:57;;;;;;;21.63;11.55;;;15.30;99.90;;;;;;4771896;30;20113;-75
2020/12/20 09:53:23;;;;;;;16.65;9.75;;;15.30;99.90;;;;;;4752919;30;20093;-76
2020/12/20 09:55:49;;;;;;;17.85;10.20;;;15.30;99.90;;;;;;4784852;30;20039;-76
2020/12/20 09:58:15;;;;;;;20.58;11.25;;;15.30;99.90;;;;;;4785058;30;20398;-75
2020/12/20 10:00:43;;;;;;;22.08;12.50;;;15.40;99.90;;;;;;4784361;29;20046;-75
2020/12/20 10:03:10;;;;;;;20.52;11.55;;;15.60;99.90;;;;;;4783201;29;20042;-75
2020/12/20 10:05:39;;;;;;;17.55;11.48;;;15.60;99.90;;;;;;4769313;30;20480;-75
2020/12/20 10:08:06;;;;;;;13.52;9.20;;;15.80;99.90;;;;;;4786159;30;20089;-76
2020/12/20 10:10:32;;;;;;;11.13;7.13;;;15.90;99.90;;;;;;4786580;29;20118;-75
2020/12/20 10:12:58;;;;;;;9.50;5.78;;;16.00;99.90;;;;;;4786063;29;20085;-75
2020/12/20 10:15:25;;;;;;;8.73;5.60;;;16.00;99.90;;;;;;4773385;30;20028;-76
2020/12/20 10:17:52;;;;;;;8.85;6.53;;;16.10;99.90;;;;;;4768797;30;20040;-76
2020/12/20 10:20:18;;;;;;;9.18;5.20;;;16.10;99.90;;;;;;4768555;30;20036;-75
2020/12/20 10:22:44;;;;;;;8.93;5.10;;;16.00;99.90;;;;;;4769974;30;20089;-76
2020/12/20 10:25:11;;;;;;;8.38;4.88;;;15.90;99.90;;;;;;4769786;30;20040;-76
2020/12/20 10:27:37;;;;;;;14.00;7.70;;;15.90;99.90;;;;;;4777459;29;20115;-76
2020/12/20 10:30:03;;;;;;;12.18;8.48;;;15.80;99.90;;;;;;4785982;29;20039;-76
2020/12/20 10:32:29;;;;;;;11.43;6.47;;;15.80;99.90;;;;;;4786122;30;20510;-76
2020/12/20 10:34:55;;;;;;;14.55;6.95;;;15.80;99.90;;;;;;4781698;29;20410;-76
2020/12/20 10:37:22;;;;;;;13.13;7.13;;;15.70;99.90;;;;;;4768297;30;20457;-75
2020/12/20 10:39:48;;;;;;;12.27;6.75;;;15.70;99.90;;;;;;4768382;30;20493;-75
2020/12/20 10:42:14;;;;;;;13.35;7.70;;;15.80;99.90;;;;;;4768088;30;20034;-75
2020/12/20 10:44:42;;;;;;;11.13;8.35;;;15.80;99.90;;;;;;4768370;30;20151;-76
2020/12/20 10:47:08;;;;;;;14.73;9.70;;;15.80;99.90;;;;;;4784378;29;20452;-76
2020/12/20 10:49:34;;;;;;;12.07;8.82;;;15.90;99.90;;;;;;4784482;30;20050;-76
2020/12/20 10:52:01;;;;;;;11.13;7.82;;;16.00;99.90;;;;;;4785361;30;20044;-75
2020/12/20 10:54:30;;;;;;;11.07;7.03;;;16.20;99.90;;;;;;4784830;29;20062;-75
2020/12/20 10:57:00;;;;;;;11.85;7.30;;;16.40;99.90;;;;;;4784245;29;20039;-76
2020/12/20 10:59:27;;;;;;;11.05;6.82;;;16.40;99.90;;;;;;4785692;29;20182;-76
2020/12/20 11:01:54;;;;;;;10.55;5.55;;;16.50;99.90;;;;;;4785630;30;20031;-76
2020/12/20 11:04:22;;;;;;;7.97;5.15;;;16.50;99.90;;;;;;4785579;29;20188;-76
2020/12/20 11:06:48;;;;;;;8.90;5.70;;;16.60;99.90;;;;;;4778868;29;20498;-76
2020/12/20 11:09:15;;;;;;;9.05;5.03;;;16.60;99.90;;;;;;4761576;30;20125;-75
2020/12/20 11:11:42;;;;;;;7.25;4.28;;;16.60;99.90;;;;;;4783943;29;20035;-75
2020/12/20 11:14:09;;;;;;;8.00;5.10;;;16.60;99.90;;;;;;4781641;30;20035;-76
2020/12/20 11:16:35;;;;;;;8.25;4.55;;;16.60;99.90;;;;;;4765513;30;20084;-76
2020/12/20 11:19:02;;;;;;;8.38;4.45;;;16.50;99.90;;;;;;4782422;29;20035;-76
2020/12/20 11:21:28;;;;;;;8.40;4.82;;;16.60;99.90;;;;;;4782006;30;20047;-75
2020/12/20 11:23:54;;;;;;;7.97;4.35;;;16.60;99.90;;;;;;4782621;30;20067;-76
2020/12/20 11:26:22;;;;;;;6.60;4.47;;;16.70;99.90;;;;;;4782987;30;20664;-76
2020/12/20 11:28:50;;;;;;;9.20;5.05;;;16.70;99.90;;;;;;4781901;30;20055;-75
2020/12/20 11:31:20;;;;;;;7.45;4.65;;;16.80;99.90;;;;;;4765865;30;20123;-76
2020/12/20 11:33:47;;;;;;;9.43;4.95;;;16.80;99.90;;;;;;4768073;29;20134;-75
2020/12/20 11:36:18;;;;;;;6.82;5.07;;;16.90;99.90;;;;;;4783373;30;20031;-76
2020/12/20 11:38:45;;;;;;;9.13;4.35;;;16.90;99.90;;;;;;4782887;30;20038;-76
2020/12/20 11:41:12;;;;;;;7.05;4.88;;;16.90;99.90;;;;;;4781269;29;20039;-75
2020/12/20 11:43:39;;;;;;;9.98;4.93;;;16.90;99.90;;;;;;4783802;30;20055;-75
2020/12/20 11:46:05;;;;;;;8.18;4.25;;;16.90;99.90;;;;;;4783617;30;20035;-75
2020/12/20 11:48:32;;;;;;;6.22;4.25;;;16.90;99.90;;;;;;4780383;30;20084;-75
2020/12/20 11:50:58;;;;;;;11.35;5.22;;;17.00;99.90;;;;;;4782932;29;20398;-75
2020/12/20 11:53:26;;;;;;;7.28;4.90;;;17.00;99.90;;;;;;4783240;29;20035;-75
2020/12/20 11:55:53;;;;;;;6.95;4.88;;;17.10;99.90;;;;;;4783377;30;20069;-75
2020/12/20 11:58:20;;;;;;;10.07;6.05;;;17.40;99.90;;;;;;4782224;29;20589;-75
2020/12/20 12:00:48;;;;;;;8.65;4.82;;;17.80;99.90;;;;;;4782788;30;20083;-75
2020/12/20 12:03:15;;;;;;;8.02;5.03;;;18.00;99.90;;;;;;4782969;30;20039;-75
2020/12/20 12:05:44;;;;;;;7.47;5.00;;;18.10;99.90;;;;;;4780462;30;20054;-75
2020/12/20 12:08:11;;;;;;;9.15;4.05;;;18.30;99.90;;;;;;4780902;30;20039;-74
2020/12/20 12:10:43;;;;;;;8.25;5.57;;;18.30;99.90;;;;;;4767026;30;20565;-75
2020/12/20 12:13:10;;;;;;;8.27;5.82;;;18.20;99.90;;;;;;4782958;30;20042;-75
2020/12/20 12:15:38;;;;;;;11.23;6.60;;;18.20;99.90;;;;;;4780387;30;20089;-74
2020/12/20 12:18:04;;;;;;;10.73;6.40;;;18.10;99.90;;;;;;4782944;30;20046;-75
2020/12/20 12:20:31;;;;;;;5.40;3.72;;;17.90;99.90;;;;;;4783494;29;20039;-75
2020/12/20 12:23:29;;;;;;;7.70;4.05;;;17.40;99.90;;;;;;4781652;30;20110;-75
2020/12/20 12:25:55;;;;;;;6.88;4.07;;;16.90;99.90;;;;;;4780722;30;20039;-75
2020/12/20 12:28:23;;;;;;;5.82;4.07;;;16.60;99.90;;;;;;4782864;29;20409;-75
2020/12/20 12:30:49;;;;;;;6.57;4.22;;;16.50;99.90;;;;;;4781234;29;20035;-75
2020/12/20 12:33:15;;;;;;;9.43;3.92;;;16.30;99.90;;;;;;4780769;30;20059;-75
2020/12/20 12:35:41;;;;;;;9.80;4.22;;;16.00;99.90;;;;;;4779628;29;20119;-75
2020/12/20 12:38:07;;;;;;;8.98;3.95;;;15.80;99.90;;;;;;4786780;30;20075;-75
2020/12/20 12:40:35;;;;;;;7.38;3.90;;;15.80;99.90;;;;;;4786453;29;20085;-75
2020/12/20 12:43:02;;;;;;;6.18;3.97;;;15.80;99.90;;;;;;4786255;30;20067;-75
2020/12/20 12:45:30;;;;;;;6.47;3.50;;;15.70;99.90;;;;;;4785519;30;20035;-76
2020/12/20 12:47:56;;;;;;;5.25;3.60;;;15.70;99.90;;;;;;4782754;29;20547;-76
2020/12/20 12:50:24;;;;;;;6.90;3.28;;;15.70;99.90;;;;;;4768210;30;20106;-75
2020/12/20 12:52:50;;;;;;;6.10;3.40;;;15.70;99.90;;;;;;4770894;30;20031;-75
2020/12/20 12:55:16;;;;;;;7.47;3.80;;;15.70;99.90;;;;;;4784979;30;20041;-75
2020/12/20 12:57:43;;;;;;;8.15;3.70;;;15.60;99.90;;;;;;4783557;30;20045;-76
2020/12/20 13:00:11;;;;;;;7.10;3.70;;;15.60;99.90;;;;;;4784612;29;20689;-76
2020/12/20 13:02:37;;;;;;;5.00;3.53;;;15.60;99.90;;;;;;4784776;29;20119;-75
2020/12/20 13:05:03;;;;;;;6.43;4.00;;;15.60;99.90;;;;;;4785217;29;20114;-75
2020/12/20 13:07:29;;;;;;;8.90;4.20;;;15.60;99.90;;;;;;4783391;30;20092;-75
2020/12/20 13:09:56;;;;;;;6.68;3.85;;;15.50;99.90;;;;;;4783974;30;20406;-75
2020/12/20 13:12:22;;;;;;;6.65;4.32;;;15.50;99.90;;;;;;4784187;29;20114;-76
2020/12/20 13:14:48;;;;;;;7.43;3.95;;;15.40;99.90;;;;;;4769811;30;20027;-75
2020/12/20 13:17:14;;;;;;;7.63;4.43;;;15.40;99.90;;;;;;4783682;30;20031;-75
2020/12/20 13:19:40;;;;;;;8.77;4.75;;;15.30;99.90;;;;;;4769800;30;20037;-75
2020/12/20 13:22:07;;;;;;;7.90;4.93;;;15.30;99.90;;;;;;4785078;29;20039;-75
2020/12/20 13:24:33;;;;;;;7.45;4.20;;;15.30;99.90;;;;;;4784180;29;20506;-75
2020/12/20 13:26:59;;;;;;;7.82;4.45;;;15.30;99.90;;;;;;4784936;29;20399;-75
2020/12/20 13:29:25;;;;;;;6.38;3.55;;;15.30;99.90;;;;;;4783796;29;20106;-75
2020/12/20 13:31:51;;;;;;;5.65;3.75;;;15.30;99.90;;;;;;4786139;29;20511;-76
2020/12/20 13:34:17;;;;;;;8.95;4.07;;;15.20;99.90;;;;;;4785956;30;20080;-75
2020/12/20 13:36:43;;;;;;;6.05;3.97;;;15.10;99.90;;;;;;4785987;29;20513;-75
2020/12/20 13:39:09;;;;;;;7.60;4.13;;;15.20;99.90;;;;;;4767007;30;20032;-76
2020/12/20 13:41:35;;;;;;;8.13;4.15;;;15.20;99.90;;;;;;4769199;30;20046;-75
2020/12/20 13:44:01;;;;;;;6.70;4.03;;;15.20;99.90;;;;;;4758865;30;20076;-75
2020/12/20 13:46:27;;;;;;;6.88;4.22;;;15.30;99.90;;;;;;4770020;30;20043;-78
2020/12/20 13:48:53;;;;;;;6.38;3.63;;;15.30;99.90;;;;;;4776064;30;20070;-76
2020/12/20 13:51:20;;;;;;;8.07;4.00;;;15.30;99.90;;;;;;4768695;30;20031;-77
2020/12/20 13:53:46;;;;;;;6.07;4.03;;;15.20;99.90;;;;;;4769116;30;20050;-76
2020/12/20 13:56:12;;;;;;;7.65;4.07;;;15.20;99.90;;;;;;4753186;30;20042;-76
2020/12/20 13:58:41;;;;;;;8.57;3.55;;;15.20;99.90;;;;;;4770796;30;20073;-77
2020/12/20 14:01:08;;;;;;;6.68;3.58;;;15.20;99.90;;;;;;4768896;30;20487;-77
2020/12/20 14:03:34;;;;;;;6.38;4.05;;;15.20;99.90;;;;;;4768778;30;20119;-77
2020/12/20 14:06:01;;;;;;;5.20;3.67;;;15.20;99.90;;;;;;4780747;29;20110;-77
2020/12/20 14:08:27;;;;;;;7.15;3.42;;;15.10;99.90;;;;;;4784991;29;20027;-76
2020/12/20 14:10:53;;;;;;;8.75;4.10;;;15.10;99.90;;;;;;4783384;30;20042;-77
2020/12/20 14:13:19;;;;;;;7.35;4.05;;;15.10;99.90;;;;;;4768622;30;20395;-77
2020/12/20 14:15:45;;;;;;;8.20;4.03;;;15.10;99.90;;;;;;4769111;30;20038;-77
2020/12/20 14:18:12;;;;;;;7.32;4.57;;;15.00;99.90;;;;;;4774024;30;20036;-77
2020/12/20 14:20:39;;;;;;;7.70;4.30;;;15.00;99.90;;;;;;4771589;30;20042;-77
2020/12/20 14:23:06;;;;;;;6.90;4.03;;;14.90;99.90;;;;;;4752272;30;20043;-77
2020/12/20 14:25:32;;;;;;;8.00;4.40;;;14.90;99.90;;;;;;4768454;30;20043;-77
2020/12/20 14:27:58;;;;;;;8.68;4.38;;;14.90;99.90;;;;;;4776508;29;20401;-75
2020/12/20 14:30:25;;;;;;;8.00;4.60;;;14.90;99.90;;;;;;4782678;29;20422;-76
2020/12/20 14:32:51;;;;;;;7.53;4.68;;;14.90;99.90;;;;;;4784183;29;20058;-76
2020/12/20 14:35:17;;;;;;;7.60;4.80;;;14.90;99.90;;;;;;4784816;30;20039;-77
2020/12/20 14:37:43;;;;;;;8.52;4.53;;;14.90;99.90;;;;;;4781507;29;20030;-76
2020/12/20 14:40:09;;;;;;;8.10;5.00;;;14.80;99.90;;;;;;4784581;29;20036;-76
2020/12/20 14:42:35;;;;;;;7.18;4.47;;;14.80;99.90;;;;;;4785087;30;20031;-76
2020/12/20 14:45:02;;;;;;;7.90;5.18;;;14.80;99.90;;;;;;4784594;29;20122;-76
2020/12/20 14:47:28;;;;;;;16.52;5.43;;;14.80;99.90;;;;;;4783154;30;20027;-76
2020/12/20 14:49:59;;;;;;;11.50;5.15;;;14.80;99.90;;;;;;4781285;30;20444;-77
2020/12/20 14:52:25;;;;;;;7.68;5.03;;;14.80;99.90;;;;;;4767504;30;20421;-77
2020/12/20 14:54:51;;;;;;;8.48;4.88;;;14.80;99.90;;;;;;4784162;30;20027;-77
2020/12/20 14:57:17;;;;;;;9.82;5.25;;;14.80;99.90;;;;;;4781969;29;20102;-76
2020/12/20 14:59:44;;;;;;;12.77;5.63;;;14.90;99.90;;;;;;4782502;30;20051;-76
2020/12/20 15:02:10;;;;;;;11.80;5.45;;;14.90;99.90;;;;;;4784516;29;21654;-76
2020/12/20 15:04:36;;;;;;;10.32;4.63;;;14.90;99.90;;;;;;4781561;29;20070;-75
2020/12/20 15:07:02;;;;;;;8.38;5.22;;;14.90;99.90;;;;;;4784180;30;20567;-76
2020/12/20 15:09:28;;;;;;;9.05;4.85;;;14.80;99.90;;;;;;4778404;29;20031;-77
2020/12/20 15:11:55;;;;;;;8.98;4.72;;;14.80;99.90;;;;;;4784682;30;20051;-76
2020/12/20 15:14:21;;;;;;;11.00;6.40;;;14.80;99.90;;;;;;4783925;29;20483;-75
2020/12/20 15:16:47;;;;;;;8.48;5.07;;;14.80;99.90;;;;;;4777217;29;20031;-75
2020/12/20 15:19:13;;;;;;;7.75;4.30;;;14.80;99.90;;;;;;4779055;29;20457;-75
2020/12/20 15:21:41;;;;;;;7.68;4.10;;;14.70;99.90;;;;;;4783187;29;20037;-76
2020/12/20 15:24:08;;;;;;;7.05;4.05;;;14.60;99.90;;;;;;4783774;29;20080;-76
2020/12/20 15:26:34;;;;;;;15.15;4.85;;;14.50;99.90;;;;;;4780562;29;20458;-76
2020/12/20 15:29:01;;;;;;;14.95;5.00;;;14.50;99.90;;;;;;4761745;30;20035;-76
2020/12/20 15:31:27;;;;;;;6.88;4.18;;;14.40;99.90;;;;;;4764700;30;20084;-78
2020/12/20 15:33:53;;;;;;;8.38;4.45;;;14.40;99.90;;;;;;4782701;29;20130;-77
2020/12/20 15:36:20;;;;;;;9.00;4.43;;;14.30;99.90;;;;;;4783353;29;20045;-75
2020/12/20 15:38:51;;;;;;;7.57;4.30;;;14.40;99.90;;;;;;4783004;29;20035;-76
2020/12/20 15:41:18;;;;;;;9.23;5.07;;;14.40;99.90;;;;;;4782339;29;20379;-77
2020/12/20 15:43:46;;;;;;;9.45;4.90;;;14.30;99.90;;;;;;4779835;29;20038;-76
2020/12/20 15:46:13;;;;;;;7.55;4.75;;;14.40;99.90;;;;;;4783466;29;20031;-77
2020/12/20 15:48:39;;;;;;;7.85;5.55;;;14.40;99.90;;;;;;4783592;30;20031;-75
2020/12/20 15:51:06;;;;;;;10.30;4.65;;;14.30;99.90;;;;;;4781601;29;20027;-76
2020/12/20 15:53:33;;;;;;;9.50;5.93;;;14.30;99.90;;;;;;4783370;29;20039;-75
2020/12/20 15:56:03;;;;;;;8.35;5.10;;;14.40;99.90;;;;;;4783528;29;20490;-75
2020/12/20 15:58:30;;;;;;;7.95;4.65;;;14.30;99.90;;;;;;4782751;30;20035;-75
2020/12/20 16:00:56;;;;;;;8.52;5.38;;;14.40;99.90;;;;;;4783855;29;20031;-75
2020/12/20 16:03:22;;;;;;;8.30;4.97;;;14.30;99.90;;;;;;4783054;30;20498;-75
2020/12/20 16:05:50;;;;;;;10.65;5.47;;;14.40;99.90;;;;;;4752432;29;20104;-75
2020/12/20 16:08:19;;;;;;;25.50;12.57;;;14.40;99.90;;;;;;4780497;29;20087;-75
2020/12/20 16:10:46;;;;;;;61.22;29.33;;;14.40;99.90;;;;;;4782525;30;20043;-76
2020/12/20 16:13:12;;;;;;;55.20;27.75;;;14.40;99.90;;;;;;4782973;30;20031;-76
2020/12/20 16:15:39;;;;;;;40.45;20.08;;;14.40;99.90;;;;;;4783322;30;20039;-76
2020/12/20 16:18:05;;;;;;;33.63;16.30;;;14.40;99.90;;;;;;4779804;29;20023;-76
2020/12/20 16:20:31;;;;;;;21.65;13.07;;;14.40;99.90;;;;;;4782803;29;20131;-78
2020/12/20 16:22:57;;;;;;;25.73;15.20;;;14.30;99.90;;;;;;4766854;30;20440;-78
2020/12/20 16:25:23;;;;;;;25.15;14.23;;;14.30;99.90;;;;;;4783585;29;20096;-79
2020/12/20 16:27:49;;;;;;;27.33;16.25;;;14.30;99.90;;;;;;4781235;29;20032;-76
2020/12/20 16:30:16;;;;;;;28.25;15.98;;;14.30;99.90;;;;;;4780474;30;20105;-77
2020/12/20 16:32:43;;;;;;;24.30;14.60;;;14.30;99.90;;;;;;4781653;29;20427;-74
2020/12/20 16:35:12;;;;;;;35.33;17.98;;;14.30;99.90;;;;;;4783068;30;20035;-77
2020/12/20 16:37:38;;;;;;;29.58;15.98;;;14.20;99.90;;;;;;4782569;30;20035;-76
2020/12/20 16:40:06;;;;;;;27.38;17.10;;;14.20;99.90;;;;;;4781018;30;20032;-76
2020/12/20 16:42:34;;;;;;;33.60;19.65;;;14.20;99.90;;;;;;4780497;30;20039;-76
2020/12/20 16:45:01;;;;;;;29.60;16.75;;;14.20;99.90;;;;;;4779986;29;20035;-77
2020/12/20 16:47:27;;;;;;;24.95;14.60;;;14.20;99.90;;;;;;4782580;29;20035;-76
2020/12/20 16:49:54;;;;;;;23.42;14.52;;;14.10;99.90;;;;;;4782002;29;20114;-77
2020/12/20 16:52:20;;;;;;;23.27;13.93;;;14.10;99.90;;;;;;4780219;29;20176;-75
2020/12/20 16:54:48;;;;;;;18.50;11.88;;;14.10;99.90;;;;;;4782453;30;20068;-76
2020/12/20 16:57:14;;;;;;;16.02;8.10;;;14.10;99.90;;;;;;4782130;29;20035;-74
2020/12/20 16:59:40;;;;;;;11.50;6.50;;;14.10;99.90;;;;;;4781296;30;20093;-74
2020/12/20 17:02:06;;;;;;;13.70;7.22;;;14.00;99.90;;;;;;4783259;29;20035;-75
2020/12/20 17:04:32;;;;;;;11.02;6.18;;;13.90;99.90;;;;;;4782495;30;20039;-75
2020/12/20 17:06:58;;;;;;;10.95;6.57;;;13.80;99.90;;;;;;4766920;29;20031;-75
2020/12/20 17:09:25;;;;;;;22.92;6.72;;;13.80;99.90;;;;;;4779524;30;20027;-75
2020/12/20 17:11:51;;;;;;;13.60;8.07;;;13.80;99.90;;;;;;4783189;29;20067;-75
2020/12/20 17:14:17;;;;;;;13.93;7.28;;;13.70;99.90;;;;;;4783293;30;20144;-75
2020/12/20 17:16:43;;;;;;;17.73;8.88;;;13.70;99.90;;;;;;4782425;30;20525;-75
2020/12/20 17:19:09;;;;;;;14.25;8.20;;;13.70;99.90;;;;;;4781286;30;20066;-76
2020/12/20 17:21:35;;;;;;;14.27;8.05;;;13.70;99.90;;;;;;4781579;29;20031;-76
2020/12/20 17:24:01;;;;;;;20.50;8.77;;;13.70;99.90;;;;;;4786122;29;20035;-76
2020/12/20 17:26:27;;;;;;;21.65;12.00;;;13.70;99.90;;;;;;4769540;30;20103;-76
2020/12/20 17:28:53;;;;;;;24.58;12.15;;;13.70;99.90;;;;;;4783989;30;20027;-76
2020/12/20 17:31:22;;;;;;;15.95;9.43;;;13.70;99.90;;;;;;4784395;29;20414;-75
2020/12/20 17:33:49;;;;;;;16.23;9.80;;;13.70;99.90;;;;;;4785854;29;20027;-75
2020/12/20 17:36:16;;;;;;;16.50;9.50;;;13.70;99.90;;;;;;4785428;29;20035;-75
2020/12/20 17:38:47;;;;;;;18.38;10.10;;;13.70;99.90;;;;;;4785170;29;20047;-75
2020/12/20 17:41:20;;;;;;;21.05;11.52;;;13.70;99.90;;;;;;4782778;29;20031;-75
2020/12/20 17:43:46;;;;;;;17.20;10.23;;;13.70;99.90;;;;;;4785357;29;20034;-75
2020/12/20 17:46:14;;;;;;;15.88;10.73;;;13.70;99.90;;;;;;4785299;29;20045;-75
2020/12/20 17:48:41;;;;;;;15.88;8.98;;;13.70;99.90;;;;;;4769713;30;20084;-75
2020/12/20 17:51:07;;;;;;;20.58;9.02;;;13.70;99.90;;;;;;4783588;29;20047;-75
2020/12/20 17:53:33;;;;;;;16.50;9.60;;;13.70;99.90;;;;;;4784417;29;20061;-75
2020/12/20 17:56:00;;;;;;;17.98;9.80;;;13.70;99.90;;;;;;4785505;29;20059;-75
2020/12/20 17:58:26;;;;;;;17.33;10.30;;;13.70;99.90;;;;;;4785294;29;20035;-74
2020/12/20 18:00:52;;;;;;;21.77;10.82;;;13.70;99.90;;;;;;4784686;29;20038;-75
2020/12/20 18:03:18;;;;;;;17.58;9.27;;;13.70;99.90;;;;;;4785363;29;20059;-75
2020/12/20 18:05:44;;;;;;;23.45;9.70;;;13.70;99.90;;;;;;4783326;29;20056;-75
2020/12/20 18:08:11;;;;;;;18.05;9.45;;;13.60;99.90;;;;;;4783922;29;20035;-74
2020/12/20 18:10:37;;;;;;;20.90;9.10;;;13.60;99.90;;;;;;4784985;29;20479;-75
2020/12/20 18:13:04;;;;;;;16.50;9.07;;;13.60;99.90;;;;;;4784449;30;20054;-75
2020/12/20 18:15:30;;;;;;;28.30;19.38;;;13.50;99.90;;;;;;4785104;30;20046;-75
2020/12/20 18:17:56;;;;;;;29.38;16.33;;;13.50;99.90;;;;;;4785338;29;20363;-75
2020/12/20 18:20:22;;;;;;;25.83;14.75;;;13.50;99.90;;;;;;4783434;30;20110;-75
2020/12/20 18:22:48;;;;;;;24.52;13.73;;;13.50;99.90;;;;;;4783235;29;20059;-75
2020/12/20 18:25:15;;;;;;;28.95;14.93;;;13.50;99.90;;;;;;4785028;30;20046;-75
2020/12/20 18:27:41;;;;;;;23.77;12.55;;;13.50;99.90;;;;;;4785353;29;20111;-75
2020/12/20 18:30:08;;;;;;;23.80;12.45;;;13.50;99.90;;;;;;4784653;30;20859;-75
2020/12/20 18:32:34;;;;;;;29.10;13.50;;;13.50;99.90;;;;;;4782304;29;20586;-75
2020/12/20 18:35:02;;;;;;;27.85;12.85;;;13.50;99.90;;;;;;4784733;29;20057;-75
2020/12/20 18:37:32;;;;;;;28.05;12.65;;;13.40;99.90;;;;;;4768465;30;20056;-75
2020/12/20 18:39:58;;;;;;;18.60;9.88;;;13.40;99.90;;;;;;4784541;29;20556;-75
2020/12/20 18:42:25;;;;;;;16.35;11.02;;;13.40;99.90;;;;;;4783673;29;20032;-75
2020/12/20 18:44:51;;;;;;;16.83;10.20;;;13.40;99.90;;;;;;4767551;29;20047;-75
2020/12/20 18:47:19;;;;;;;19.30;9.95;;;13.30;99.90;;;;;;4782317;30;20499;-75
2020/12/20 18:49:45;;;;;;;18.15;10.75;;;13.30;99.90;;;;;;4781149;29;20045;-75
2020/12/20 18:52:12;;;;;;;26.83;11.07;;;13.30;99.90;;;;;;4784568;30;20114;-75
2020/12/20 18:54:38;;;;;;;18.50;10.63;;;13.30;99.90;;;;;;4782018;29;20031;-76
2020/12/20 18:57:07;;;;;;;17.48;9.75;;;13.20;99.90;;;;;;4784030;29;20164;-75
2020/12/20 18:59:34;;;;;;;17.70;10.50;;;13.30;99.90;;;;;;4783978;29;20070;-75
2020/12/20 19:02:02;;;;;;;15.38;10.48;;;13.20;99.90;;;;;;4784175;29;20035;-74
2020/12/20 19:04:28;;;;;;;18.40;10.80;;;13.20;99.90;;;;;;4782738;29;20507;-75
2020/12/20 19:06:54;;;;;;;17.48;11.05;;;13.20;99.90;;;;;;4784136;29;20058;-75
2020/12/20 19:09:20;;;;;;;17.00;10.88;;;13.20;99.90;;;;;;4785381;29;20037;-75
2020/12/20 19:11:46;;;;;;;16.00;9.65;;;13.10;99.90;;;;;;4785591;29;20039;-76
2020/12/20 19:14:12;;;;;;;18.13;9.43;;;13.10;99.90;;;;;;4767252;30;20027;-75
2020/12/20 19:16:44;;;;;;;16.92;9.25;;;13.10;99.90;;;;;;4782121;29;20065;-75
2020/12/20 19:19:14;;;;;;;13.65;8.23;;;13.00;99.90;;;;;;4785312;29;20391;-75
2020/12/20 19:21:40;;;;;;;13.23;9.23;;;13.00;99.90;;;;;;4785660;29;20023;-76
2020/12/20 19:24:08;;;;;;;25.92;16.73;;;12.90;99.90;;;;;;4780509;30;20031;-76
2020/12/20 19:26:35;;;;;;;19.33;11.70;;;12.90;99.90;;;;;;4785085;29;20077;-75
2020/12/20 19:29:01;;;;;;;19.45;12.00;;;12.90;99.90;;;;;;4769037;30;20481;-75
2020/12/20 19:31:27;;;;;;;17.60;9.63;;;12.90;99.90;;;;;;4784934;30;20541;-75
2020/12/20 19:33:53;;;;;;;13.30;7.95;;;12.90;99.90;;;;;;4783676;30;20510;-75
2020/12/20 19:36:23;;;;;;;22.63;13.65;;;12.90;99.90;;;;;;4784475;29;20035;-75
2020/12/20 19:38:50;;;;;;;21.27;13.85;;;12.90;99.90;;;;;;4785093;29;20035;-75
2020/12/20 19:41:16;;;;;;;26.48;14.90;;;12.90;99.90;;;;;;4785199;29;20055;-75
2020/12/20 19:43:43;;;;;;;22.58;13.85;;;12.90;99.90;;;;;;4769088;30;20046;-75
2020/12/20 19:46:15;;;;;;;16.63;10.50;;;12.90;99.90;;;;;;4783534;29;20039;-75
2020/12/20 19:48:41;;;;;;;13.88;9.32;;;12.80;99.90;;;;;;4769143;30;20110;-75
2020/12/20 19:51:15;;;;;;;39.30;20.30;;;12.80;99.90;;;;;;4785187;29;20106;-75
2020/12/20 19:53:43;;;;;;;41.97;25.73;;;12.80;99.90;;;;;;4785102;29;20486;-75
2020/12/20 19:56:10;;;;;;;27.85;16.90;;;12.80;99.90;;;;;;4780120;29;20100;-75